Time;durP1;ratioP1;P1;durP2;ratioP2;P2;SDS_P1;SDS_P2;PMS_P1;PMS_P2;Temp;Humidity;BMP_temperature;BMP_pressure;BME280_temperature;BME280_humidity;BME280_pressure;Samples;Min_cycle;Max_cycle;Signal;HPM_P1;HPM_P2
2023/11/22 00:00:03;;;;;;;31.23;14.73;;;;;;;;;;5027191;28;20602;-67
2023/11/22 00:02:29;;;;;;;32.10;13.73;;;;;;;;;;5018503;28;20186;-68
2023/11/22 00:04:55;;;;;;;29.50;13.87;;;;;;;;;;5032205;28;20200;-68
2023/11/22 00:07:21;;;;;;;30.57;14.37;;;;;;;;;;5030370;28;20178;-68
2023/11/22 00:09:47;;;;;;;27.77;12.90;;;;;;;;;;5028654;28;20182;-68
2023/11/22 00:12:13;;;;;;;33.07;14.23;;;;;;;;;;5032736;28;20267;-68
2023/11/22 00:14:38;;;;;;;30.17;13.50;;;;;;;;;;5024420;28;20554;-68
2023/11/22 00:17:04;;;;;;;23.97;12.97;;;;;;;;;;5031541;28;20204;-68
2023/11/22 00:19:30;;;;;;;29.37;13.53;;;;;;;;;;5025841;28;20216;-68
2023/11/22 00:21:55;;;;;;;29.00;13.20;;;;;;;;;;5040710;28;20193;-68
2023/11/22 00:24:21;;;;;;;26.57;13.30;;;;;;;;;;5024150;28;20555;-68
2023/11/22 00:26:46;;;;;;;26.97;12.83;;;;;;;;;;5021326;28;20186;-69
2023/11/22 00:29:12;;;;;;;27.50;13.73;;;;;;;;;;5021999;28;20190;-68
2023/11/22 00:31:37;;;;;;;30.00;13.73;;;;;;;;;;5025530;28;20575;-68
2023/11/22 00:34:02;;;;;;;32.27;13.67;;;;;;;;;;5020827;28;20613;-68
2023/11/22 00:36:29;;;;;;;24.97;12.40;;;;;;;;;;5030118;28;20217;-69
2023/11/22 00:38:54;;;;;;;30.23;13.00;;;;;;;;;;5031358;28;20202;-68
2023/11/22 00:41:20;;;;;;;30.77;13.00;;;;;;;;;;5036312;28;20245;-68
2023/11/22 00:43:46;;;;;;;29.90;13.90;;;;;;;;;;5026473;28;20278;-68
2023/11/22 00:46:11;;;;;;;26.07;12.47;;;;;;;;;;5039047;28;20179;-68
2023/11/22 00:48:37;;;;;;;28.13;12.30;;;;;;;;;;5030453;28;20190;-68
2023/11/22 00:51:08;;;;;;;29.90;12.83;;;;;;;;;;5038658;28;20637;-68
2023/11/22 00:53:34;;;;;;;25.97;12.57;;;;;;;;;;5018461;28;20190;-68
2023/11/22 00:55:59;;;;;;;28.33;12.67;;;;;;;;;;5040888;28;20550;-68
2023/11/22 00:58:25;;;;;;;27.70;13.50;;;;;;;;;;5027163;28;20198;-68
2023/11/22 01:00:50;;;;;;;28.83;13.20;;;;;;;;;;5033945;28;20190;-68
2023/11/22 01:03:15;;;;;;;32.50;13.93;;;;;;;;;;5028684;28;20206;-68
2023/11/22 01:05:42;;;;;;;30.63;13.13;;;;;;;;;;5011581;28;20257;-68
2023/11/22 01:08:07;;;;;;;28.40;14.17;;;;;;;;;;5025922;28;20273;-68
2023/11/22 01:10:33;;;;;;;30.90;13.60;;;;;;;;;;5039819;28;20325;-68
2023/11/22 01:12:58;;;;;;;29.80;13.30;;;;;;;;;;5030790;28;20194;-68
2023/11/22 01:15:24;;;;;;;27.03;12.70;;;;;;;;;;5043529;28;20687;-68
2023/11/22 01:17:50;;;;;;;27.17;13.33;;;;;;;;;;5031155;28;20732;-68
2023/11/22 01:20:15;;;;;;;31.57;13.73;;;;;;;;;;5030829;28;20273;-68
2023/11/22 01:22:42;;;;;;;29.27;12.90;;;;;;;;;;5029137;28;20676;-67
2023/11/22 01:25:08;;;;;;;31.47;13.63;;;;;;;;;;5026290;28;20265;-67
2023/11/22 01:27:33;;;;;;;34.80;13.80;;;;;;;;;;5027782;28;20751;-67
2023/11/22 01:29:58;;;;;;;25.60;12.43;;;;;;;;;;5023558;28;20197;-67
2023/11/22 01:32:24;;;;;;;34.43;13.20;;;;;;;;;;5016347;28;20299;-67
2023/11/22 01:34:49;;;;;;;29.97;12.43;;;;;;;;;;5037760;28;20221;-67
2023/11/22 01:37:14;;;;;;;28.10;13.10;;;;;;;;;;5026511;28;20226;-67
2023/11/22 01:39:41;;;;;;;28.37;13.07;;;;;;;;;;5016133;28;20191;-67
2023/11/22 01:42:07;;;;;;;27.07;12.17;;;;;;;;;;5015439;28;20245;-67
2023/11/22 01:44:32;;;;;;;30.77;12.47;;;;;;;;;;5015935;28;20186;-68
2023/11/22 01:46:58;;;;;;;29.93;12.30;;;;;;;;;;5041203;28;20185;-67
2023/11/22 01:49:23;;;;;;;30.40;12.40;;;;;;;;;;5039263;28;20197;-67
2023/11/22 01:51:49;;;;;;;26.93;12.03;;;;;;;;;;5035435;28;20186;-67
2023/11/22 01:54:16;;;;;;;28.83;11.87;;;;;;;;;;5037389;28;20549;-67
2023/11/22 01:56:42;;;;;;;28.07;12.33;;;;;;;;;;5019916;28;20222;-67
2023/11/22 01:59:08;;;;;;;29.57;11.80;;;;;;;;;;5029337;28;20560;-67
2023/11/22 02:01:34;;;;;;;33.20;11.53;;;;;;;;;;5043217;28;20264;-67
2023/11/22 02:04:00;;;;;;;25.80;11.70;;;;;;;;;;5033987;28;20205;-67
2023/11/22 02:06:26;;;;;;;30.63;11.90;;;;;;;;;;5027991;28;20205;-67
2023/11/22 02:08:52;;;;;;;24.17;11.53;;;;;;;;;;5044067;28;20661;-68
2023/11/22 02:11:22;;;;;;;29.60;11.27;;;;;;;;;;5029400;28;20229;-68
2023/11/22 02:13:49;;;;;;;24.97;11.50;;;;;;;;;;5017060;28;20231;-67
2023/11/22 02:16:15;;;;;;;29.23;10.93;;;;;;;;;;5030266;28;20747;-67
2023/11/22 02:18:47;;;;;;;27.93;11.47;;;;;;;;;;5027427;28;20255;-67
2023/11/22 02:21:12;;;;;;;22.57;10.13;;;;;;;;;;5021244;28;20201;-68
2023/11/22 02:23:37;;;;;;;24.40;10.73;;;;;;;;;;5029260;28;20186;-68
2023/11/22 02:26:03;;;;;;;26.43;11.30;;;;;;;;;;5036133;28;20287;-68
2023/11/22 02:28:28;;;;;;;23.17;10.70;;;;;;;;;;5018129;28;20186;-68
2023/11/22 02:30:54;;;;;;;26.07;10.70;;;;;;;;;;5018340;28;20261;-68
2023/11/22 02:33:20;;;;;;;23.20;9.97;;;;;;;;;;5018225;28;20943;-69
2023/11/22 02:35:45;;;;;;;24.23;10.80;;;;;;;;;;5024298;28;20357;-69
2023/11/22 02:38:11;;;;;;;23.20;10.00;;;;;;;;;;5021424;28;20239;-69
2023/11/22 02:40:36;;;;;;;23.50;10.27;;;;;;;;;;5033425;28;20629;-69
2023/11/22 02:43:07;;;;;;;27.87;10.43;;;;;;;;;;5031059;28;20193;-71
2023/11/22 02:45:32;;;;;;;24.20;11.07;;;;;;;;;;5027192;28;20629;-69
2023/11/22 02:47:59;;;;;;;26.37;11.33;;;;;;;;;;5019390;28;20310;-69
2023/11/22 02:50:25;;;;;;;20.00;10.20;;;;;;;;;;5028428;28;20739;-69
2023/11/22 02:52:50;;;;;;;25.40;10.53;;;;;;;;;;5024948;28;20186;-69
2023/11/22 02:55:16;;;;;;;22.73;10.73;;;;;;;;;;5029547;28;20198;-69
2023/11/22 02:57:41;;;;;;;24.17;10.23;;;;;;;;;;5035140;28;20319;-69
2023/11/22 03:00:13;;;;;;;24.37;9.70;;;;;;;;;;5030066;28;20557;-69
2023/11/22 03:02:40;;;;;;;22.70;10.03;;;;;;;;;;5037061;28;20675;-69
2023/11/22 03:05:06;;;;;;;26.80;11.33;;;;;;;;;;5032863;28;20304;-69
2023/11/22 03:07:31;;;;;;;29.07;10.93;;;;;;;;;;5029246;28;20193;-69
2023/11/22 03:10:00;;;;;;;27.33;11.20;;;;;;;;;;5024803;28;20186;-69
2023/11/22 03:12:25;;;;;;;26.80;10.97;;;;;;;;;;5024560;28;20197;-69
2023/11/22 03:14:50;;;;;;;27.40;10.60;;;;;;;;;;5019533;28;20635;-69
2023/11/22 03:17:16;;;;;;;26.30;10.70;;;;;;;;;;5024839;28;20234;-69
2023/11/22 03:19:41;;;;;;;27.70;10.20;;;;;;;;;;5021553;28;20205;-69
2023/11/22 03:22:07;;;;;;;25.47;10.30;;;;;;;;;;5016025;28;20276;-69
2023/11/22 03:24:36;;;;;;;25.03;11.00;;;;;;;;;;5013034;28;20673;-69
2023/11/22 03:27:02;;;;;;;28.13;11.07;;;;;;;;;;5023179;28;20208;-69
2023/11/22 03:29:28;;;;;;;26.50;10.27;;;;;;;;;;5018568;28;20630;-69
2023/11/22 03:31:54;;;;;;;24.60;10.70;;;;;;;;;;5023963;28;20194;-69
2023/11/22 03:34:19;;;;;;;25.63;10.27;;;;;;;;;;5026653;28;20269;-69
2023/11/22 03:36:45;;;;;;;21.83;9.70;;;;;;;;;;5023418;28;20312;-69
2023/11/22 03:39:10;;;;;;;25.90;10.50;;;;;;;;;;5013338;28;20213;-69
2023/11/22 03:41:37;;;;;;;25.37;9.53;;;;;;;;;;5024341;28;20198;-69
2023/11/22 03:44:04;;;;;;;24.07;10.70;;;;;;;;;;5025610;28;20224;-69
2023/11/22 03:46:30;;;;;;;24.70;11.23;;;;;;;;;;5029869;28;20189;-69
2023/11/22 03:48:55;;;;;;;22.67;9.70;;;;;;;;;;5025385;28;20190;-69
2023/11/22 03:51:20;;;;;;;23.30;9.70;;;;;;;;;;5026457;28;20266;-69
2023/11/22 03:53:46;;;;;;;24.80;9.60;;;;;;;;;;5037695;28;20181;-69
2023/11/22 03:56:11;;;;;;;27.90;10.87;;;;;;;;;;5026950;28;20210;-69
2023/11/22 03:58:36;;;;;;;22.40;9.57;;;;;;;;;;5020445;28;20191;-68
2023/11/22 04:01:02;;;;;;;24.37;10.17;;;;;;;;;;5010162;28;20755;-68
2023/11/22 04:03:28;;;;;;;26.23;10.13;;;;;;;;;;5029753;28;20186;-68
2023/11/22 04:05:53;;;;;;;25.43;10.37;;;;;;;;;;5037153;28;20270;-69
2023/11/22 04:08:19;;;;;;;25.07;10.13;;;;;;;;;;5021924;28;20195;-68
2023/11/22 04:10:45;;;;;;;25.77;10.47;;;;;;;;;;5022389;28;20285;-68
2023/11/22 04:13:11;;;;;;;24.57;10.27;;;;;;;;;;5027647;28;20552;-68
2023/11/22 04:15:36;;;;;;;25.57;10.10;;;;;;;;;;5041855;28;20224;-68
2023/11/22 04:18:01;;;;;;;24.77;9.67;;;;;;;;;;5025675;28;20582;-68
2023/11/22 04:20:27;;;;;;;26.63;10.00;;;;;;;;;;5013525;28;20190;-68
2023/11/22 04:22:52;;;;;;;22.90;9.30;;;;;;;;;;5014392;28;20265;-68
2023/11/22 04:25:18;;;;;;;20.73;9.50;;;;;;;;;;5031714;28;20224;-68
2023/11/22 04:27:43;;;;;;;24.47;9.63;;;;;;;;;;5032000;28;20304;-68
2023/11/22 04:30:14;;;;;;;29.63;9.97;;;;;;;;;;5024715;28;20278;-69
2023/11/22 04:32:39;;;;;;;21.07;9.73;;;;;;;;;;5026608;28;20217;-69
2023/11/22 04:35:06;;;;;;;22.23;9.30;;;;;;;;;;5040009;28;20676;-70
2023/11/22 04:37:32;;;;;;;22.63;9.83;;;;;;;;;;5024084;28;20206;-68
2023/11/22 04:40:07;;;;;;;23.63;9.70;;;;;;;;;;5026972;28;20241;-68
2023/11/22 04:42:32;;;;;;;24.97;10.17;;;;;;;;;;5030773;28;20624;-69
2023/11/22 04:44:58;;;;;;;22.70;9.87;;;;;;;;;;5028816;28;20225;-68
2023/11/22 04:47:23;;;;;;;25.50;10.20;;;;;;;;;;5030702;28;20312;-69
2023/11/22 04:49:49;;;;;;;23.90;9.93;;;;;;;;;;5024529;28;20195;-68
2023/11/22 04:52:14;;;;;;;26.80;10.63;;;;;;;;;;5033605;28;20718;-69
2023/11/22 04:54:40;;;;;;;23.87;10.10;;;;;;;;;;5029843;28;20197;-68
2023/11/22 04:57:05;;;;;;;23.50;9.50;;;;;;;;;;5025538;28;20267;-67
2023/11/22 04:59:31;;;;;;;26.83;10.87;;;;;;;;;;5035481;28;20186;-68
2023/11/22 05:01:57;;;;;;;27.37;10.63;;;;;;;;;;5023653;28;20300;-67
2023/11/22 05:04:22;;;;;;;25.37;10.60;;;;;;;;;;5037667;28;20188;-67
2023/11/22 05:06:48;;;;;;;28.27;10.77;;;;;;;;;;5029853;28;20847;-67
2023/11/22 05:09:13;;;;;;;26.93;10.73;;;;;;;;;;5038475;28;20186;-68
2023/11/22 05:11:41;;;;;;;30.20;11.20;;;;;;;;;;5021569;28;20225;-68
2023/11/22 05:14:06;;;;;;;27.03;11.33;;;;;;;;;;5028575;28;20182;-68
2023/11/22 05:16:33;;;;;;;28.00;11.57;;;;;;;;;;5033312;28;20203;-67
2023/11/22 05:18:59;;;;;;;27.30;10.73;;;;;;;;;;5024188;28;20268;-67
2023/11/22 05:21:24;;;;;;;24.07;11.57;;;;;;;;;;5030943;28;20189;-67
2023/11/22 05:23:49;;;;;;;25.93;11.23;;;;;;;;;;5030005;28;20190;-68
2023/11/22 05:26:15;;;;;;;29.47;10.90;;;;;;;;;;5034312;28;20290;-68
2023/11/22 05:28:40;;;;;;;32.27;11.77;;;;;;;;;;5024520;28;20661;-67
2023/11/22 05:31:05;;;;;;;27.60;10.90;;;;;;;;;;5027624;28;20195;-68
2023/11/22 05:33:32;;;;;;;22.43;10.50;;;;;;;;;;5025060;28;20190;-68
2023/11/22 05:35:57;;;;;;;23.37;10.10;;;;;;;;;;5030458;28;20268;-68
2023/11/22 05:38:23;;;;;;;24.50;9.90;;;;;;;;;;5032203;28;20197;-68
2023/11/22 05:40:48;;;;;;;23.17;10.53;;;;;;;;;;5022760;28;20210;-68
2023/11/22 05:43:14;;;;;;;26.60;11.00;;;;;;;;;;5019897;28;20198;-68
2023/11/22 05:45:39;;;;;;;25.93;11.20;;;;;;;;;;5028441;28;20210;-68
2023/11/22 05:48:05;;;;;;;24.77;11.17;;;;;;;;;;5026336;28;20219;-69
2023/11/22 05:50:30;;;;;;;27.37;11.63;;;;;;;;;;5033164;28;20621;-68
2023/11/22 05:52:56;;;;;;;34.53;12.73;;;;;;;;;;5023320;28;20256;-68
2023/11/22 05:55:22;;;;;;;31.43;11.10;;;;;;;;;;5029544;28;20255;-68
2023/11/22 05:57:47;;;;;;;32.03;13.13;;;;;;;;;;5024857;28;20190;-68
2023/11/22 06:00:16;;;;;;;30.40;11.70;;;;;;;;;;5029614;28;20190;-68
2023/11/22 06:02:42;;;;;;;27.53;12.17;;;;;;;;;;5023242;28;20195;-68
2023/11/22 06:05:07;;;;;;;32.50;13.23;;;;;;;;;;5022350;28;20252;-69
2023/11/22 06:07:33;;;;;;;34.47;10.77;;;;;;;;;;5037912;28;20675;-69
2023/11/22 06:09:58;;;;;;;30.63;11.17;;;;;;;;;;5029145;28;20639;-69
2023/11/22 06:12:24;;;;;;;27.17;11.23;;;;;;;;;;5024576;28;20206;-69
2023/11/22 06:14:49;;;;;;;27.07;11.07;;;;;;;;;;5028458;28;20619;-69
2023/11/22 06:17:15;;;;;;;29.47;12.50;;;;;;;;;;5022165;28;20225;-69
2023/11/22 06:19:43;;;;;;;32.63;12.20;;;;;;;;;;5021695;28;20231;-69
2023/11/22 06:22:09;;;;;;;28.43;11.23;;;;;;;;;;5026962;28;20182;-69
2023/11/22 06:24:35;;;;;;;33.43;12.30;;;;;;;;;;5020727;28;20201;-69
2023/11/22 06:27:01;;;;;;;27.63;11.70;;;;;;;;;;5028954;28;20495;-69
2023/11/22 06:29:27;;;;;;;26.53;11.23;;;;;;;;;;5029350;28;20611;-68
2023/11/22 06:31:52;;;;;;;28.50;11.43;;;;;;;;;;5027799;28;20182;-68
2023/11/22 06:34:17;;;;;;;27.63;11.80;;;;;;;;;;5024670;28;20237;-69
2023/11/22 06:36:43;;;;;;;28.17;12.57;;;;;;;;;;5026996;28;20603;-70
2023/11/22 06:39:09;;;;;;;29.50;11.67;;;;;;;;;;5030290;28;20186;-69
2023/11/22 06:41:34;;;;;;;29.83;11.67;;;;;;;;;;5020507;28;20187;-69
2023/11/22 06:44:00;;;;;;;32.13;11.53;;;;;;;;;;5039946;28;20206;-69
2023/11/22 06:46:25;;;;;;;30.17;11.80;;;;;;;;;;5014706;28;20318;-69
2023/11/22 06:48:51;;;;;;;30.70;12.27;;;;;;;;;;5020484;28;20186;-69
2023/11/22 06:51:18;;;;;;;34.87;11.73;;;;;;;;;;5022588;28;20189;-70
2023/11/22 06:53:44;;;;;;;26.67;10.90;;;;;;;;;;5028300;28;20185;-69
2023/11/22 06:56:10;;;;;;;31.50;11.37;;;;;;;;;;5028726;28;20226;-70
2023/11/22 06:58:36;;;;;;;33.03;12.97;;;;;;;;;;5014679;28;20194;-70
2023/11/22 07:01:01;;;;;;;35.83;12.40;;;;;;;;;;5025983;28;20561;-70
2023/11/22 07:03:26;;;;;;;34.03;13.00;;;;;;;;;;5023452;28;20267;-70
2023/11/22 07:05:52;;;;;;;34.07;13.00;;;;;;;;;;5027709;28;20324;-70
2023/11/22 07:08:17;;;;;;;31.13;12.07;;;;;;;;;;5021810;28;20216;-69
2023/11/22 07:10:44;;;;;;;30.77;11.90;;;;;;;;;;5017097;28;20230;-69
2023/11/22 07:13:10;;;;;;;31.57;12.67;;;;;;;;;;5026373;28;20194;-70
2023/11/22 07:15:35;;;;;;;30.67;12.73;;;;;;;;;;5033798;28;20280;-69
2023/11/22 07:18:01;;;;;;;33.33;12.50;;;;;;;;;;5032561;28;20202;-69
2023/11/22 07:20:27;;;;;;;28.80;12.63;;;;;;;;;;5032666;28;20198;-69
2023/11/22 07:22:55;;;;;;;31.93;12.13;;;;;;;;;;5005928;28;20645;-69
2023/11/22 07:25:24;;;;;;;30.80;12.07;;;;;;;;;;5008806;28;20214;-69
2023/11/22 07:27:50;;;;;;;34.43;12.80;;;;;;;;;;5020700;28;20233;-69
2023/11/22 07:30:19;;;;;;;32.10;12.13;;;;;;;;;;5023242;28;20212;-69
2023/11/22 07:32:44;;;;;;;34.20;12.20;;;;;;;;;;5025194;28;20656;-69
2023/11/22 07:35:10;;;;;;;30.80;12.50;;;;;;;;;;5018882;28;20244;-69
2023/11/22 07:37:35;;;;;;;31.37;12.53;;;;;;;;;;5018355;28;20286;-70
2023/11/22 07:40:03;;;;;;;28.43;12.60;;;;;;;;;;5032649;28;20236;-69
2023/11/22 07:42:29;;;;;;;28.00;12.73;;;;;;;;;;5019316;28;20270;-69
2023/11/22 07:44:56;;;;;;;30.80;12.13;;;;;;;;;;5032546;28;20204;-69
2023/11/22 07:47:22;;;;;;;28.33;12.63;;;;;;;;;;5025097;28;20194;-69
2023/11/22 07:49:48;;;;;;;31.77;12.60;;;;;;;;;;5038675;28;20812;-69
2023/11/22 07:52:14;;;;;;;35.20;13.27;;;;;;;;;;5013639;28;20719;-69
2023/11/22 07:54:40;;;;;;;33.13;11.90;;;;;;;;;;5020869;28;20578;-69
2023/11/22 07:57:07;;;;;;;39.00;13.37;;;;;;;;;;5011932;28;20214;-69
2023/11/22 07:59:32;;;;;;;31.60;13.27;;;;;;;;;;5021935;28;20190;-70
2023/11/22 08:01:58;;;;;;;47.73;13.10;;;;;;;;;;5039390;28;20197;-69
2023/11/22 08:04:23;;;;;;;35.77;12.80;;;;;;;;;;5023016;28;20200;-69
2023/11/22 08:06:49;;;;;;;33.20;12.63;;;;;;;;;;5027868;28;20580;-69
2023/11/22 08:09:16;;;;;;;29.70;12.90;;;;;;;;;;5021545;28;20198;-68
2023/11/22 08:11:42;;;;;;;32.30;12.77;;;;;;;;;;5017110;28;20321;-69
2023/11/22 08:14:08;;;;;;;39.83;13.47;;;;;;;;;;5027590;28;20548;-69
2023/11/22 08:16:38;;;;;;;38.67;13.37;;;;;;;;;;5033575;28;20584;-69
2023/11/22 08:19:05;;;;;;;27.13;12.17;;;;;;;;;;5034215;28;20556;-69
2023/11/22 08:21:30;;;;;;;28.20;12.10;;;;;;;;;;5021609;28;20567;-69
2023/11/22 08:23:56;;;;;;;28.33;13.40;;;;;;;;;;5034443;28;20260;-69
2023/11/22 08:26:21;;;;;;;32.67;12.83;;;;;;;;;;5040109;28;20267;-69
2023/11/22 08:28:47;;;;;;;29.67;12.73;;;;;;;;;;5022810;28;20221;-68
2023/11/22 08:31:13;;;;;;;27.63;13.50;;;;;;;;;;5032227;28;20192;-68
2023/11/22 08:33:39;;;;;;;30.17;12.53;;;;;;;;;;5034235;28;20193;-69
2023/11/22 08:36:09;;;;;;;27.60;13.50;;;;;;;;;;5029324;28;20217;-69
2023/11/22 08:38:35;;;;;;;25.53;11.43;;;;;;;;;;5036867;28;20194;-68
2023/11/22 08:41:05;;;;;;;25.83;11.93;;;;;;;;;;5025600;28;20201;-68
2023/11/22 08:43:31;;;;;;;24.73;11.70;;;;;;;;;;5028325;28;20232;-68
2023/11/22 08:46:03;;;;;;;27.53;13.30;;;;;;;;;;5027571;28;20178;-68
2023/11/22 08:48:30;;;;;;;31.83;13.97;;;;;;;;;;5031464;28;20483;-68
2023/11/22 08:50:57;;;;;;;31.57;13.53;;;;;;;;;;5038310;28;20419;-68
2023/11/22 08:53:22;;;;;;;31.40;14.90;;;;;;;;;;5033502;28;20239;-68
2023/11/22 08:55:48;;;;;;;33.07;15.27;;;;;;;;;;5020585;28;20207;-68
2023/11/22 08:58:13;;;;;;;33.70;16.00;;;;;;;;;;5027178;28;20273;-68
2023/11/22 09:00:41;;;;;;;31.40;15.93;;;;;;;;;;5030735;28;20622;-68
2023/11/22 09:03:12;;;;;;;37.07;16.00;;;;;;;;;;5035205;28;20247;-68
2023/11/22 09:05:41;;;;;;;29.07;15.10;;;;;;;;;;5029264;28;20606;-68
2023/11/22 09:08:06;;;;;;;29.20;14.37;;;;;;;;;;5035277;28;20225;-68
2023/11/22 09:10:32;;;;;;;34.37;16.37;;;;;;;;;;5015511;28;20331;-69
2023/11/22 09:12:59;;;;;;;27.03;14.13;;;;;;;;;;5021273;28;20646;-68
2023/11/22 09:15:26;;;;;;;29.23;15.17;;;;;;;;;;5024324;28;20198;-68
2023/11/22 09:17:53;;;;;;;28.67;13.50;;;;;;;;;;5022927;28;20209;-68
2023/11/22 09:20:19;;;;;;;25.20;13.80;;;;;;;;;;5010540;28;20194;-69
2023/11/22 09:22:50;;;;;;;22.57;13.10;;;;;;;;;;5023690;28;20632;-69
2023/11/22 09:25:24;;;;;;;28.03;13.80;;;;;;;;;;5011546;28;20194;-69
2023/11/22 09:27:51;;;;;;;25.17;13.33;;;;;;;;;;5029307;28;20179;-68
2023/11/22 09:33:04;;;;;;;30.10;14.30;;;;;;;;;;5021704;28;20197;-69
2023/11/22 09:35:31;;;;;;;29.90;14.10;;;;;;;;;;5031446;28;20193;-69
2023/11/22 09:38:04;;;;;;;24.77;14.70;;;;;;;;;;5037026;28;20284;-69
2023/11/22 09:40:32;;;;;;;30.93;14.73;;;;;;;;;;5042443;28;20192;-69
2023/11/22 09:43:02;;;;;;;29.20;15.27;;;;;;;;;;5029404;28;20418;-69
2023/11/22 09:45:29;;;;;;;31.90;16.33;;;;;;;;;;5041523;28;20189;-69
2023/11/22 09:47:55;;;;;;;30.23;15.40;;;;;;;;;;5046370;28;20189;-69
2023/11/22 09:50:29;;;;;;;30.40;16.50;;;;;;;;;;5030480;28;20193;-69
2023/11/22 09:53:00;;;;;;;27.50;15.70;;;;;;;;;;5023850;28;20182;-69
2023/11/22 09:55:28;;;;;;;30.27;16.70;;;;;;;;;;5049731;28;20188;-69
2023/11/22 09:57:54;;;;;;;27.23;14.60;;;;;;;;;;5050783;28;20186;-69
2023/11/22 10:00:21;;;;;;;34.53;15.33;;;;;;;;;;5041104;28;20186;-69
2023/11/22 10:02:47;;;;;;;31.93;16.87;;;;;;;;;;5033106;28;20560;-69
2023/11/22 10:05:13;;;;;;;32.03;14.73;;;;;;;;;;5027784;28;20187;-69
2023/11/22 10:07:39;;;;;;;30.13;15.70;;;;;;;;;;5011772;28;20190;-69
2023/11/22 10:10:05;;;;;;;25.17;13.87;;;;;;;;;;5031361;28;20194;-69
2023/11/22 10:12:31;;;;;;;23.63;14.10;;;;;;;;;;5035370;28;20185;-69
2023/11/22 10:15:18;;;;;;;21.57;12.33;;;;;;;;;;5029205;28;20190;-69
2023/11/22 10:17:58;;;;;;;24.83;12.43;;;;;;;;;;5022160;28;20275;-70
2023/11/22 10:20:43;;;;;;;24.57;13.00;;;;;;;;;;5028362;28;20186;-69
2023/11/22 10:23:09;;;;;;;19.20;11.93;;;;;;;;;;5027663;28;20182;-70
2023/11/22 10:25:37;;;;;;;21.27;12.67;;;;;;;;;;5049118;28;20185;-69
2023/11/22 10:28:03;;;;;;;20.23;11.50;;;;;;;;;;5024355;28;20183;-69
2023/11/22 10:30:30;;;;;;;21.00;11.87;;;;;;;;;;5023202;28;20186;-69
2023/11/22 10:32:56;;;;;;;20.30;11.30;;;;;;;;;;5028274;28;20193;-70
2023/11/22 10:35:22;;;;;;;17.17;10.43;;;;;;;;;;5048818;28;20181;-70
2023/11/22 10:37:48;;;;;;;20.20;11.73;;;;;;;;;;5042130;28;20276;-70
2023/11/22 10:40:14;;;;;;;18.63;11.53;;;;;;;;;;5041132;28;20190;-70
2023/11/22 10:42:42;;;;;;;17.17;10.83;;;;;;;;;;5042937;28;20193;-70
2023/11/22 10:45:08;;;;;;;16.87;10.67;;;;;;;;;;5031052;28;20528;-70
2023/11/22 10:47:38;;;;;;;17.50;10.10;;;;;;;;;;5030018;28;20235;-70
2023/11/22 10:50:08;;;;;;;14.20;9.33;;;;;;;;;;5026791;28;20196;-70
2023/11/22 10:52:36;;;;;;;18.23;9.33;;;;;;;;;;5030636;28;20703;-70
2023/11/22 10:55:03;;;;;;;16.87;9.57;;;;;;;;;;5041822;28;20278;-70
2023/11/22 10:57:32;;;;;;;11.43;8.30;;;;;;;;;;5029803;28;20214;-70
2023/11/22 11:00:05;;;;;;;11.30;7.97;;;;;;;;;;5025159;28;20224;-70
2023/11/22 11:02:33;;;;;;;12.40;7.93;;;;;;;;;;5028848;28;20758;-70
2023/11/22 11:05:17;;;;;;;13.10;7.50;;;;;;;;;;5022954;28;20494;-70
2023/11/22 11:07:48;;;;;;;15.60;7.57;;;;;;;;;;5028351;28;20193;-70
2023/11/22 11:10:13;;;;;;;13.03;7.50;;;;;;;;;;5019874;28;20650;-70
2023/11/22 11:12:39;;;;;;;11.97;7.80;;;;;;;;;;5028124;28;20204;-70
2023/11/22 11:15:05;;;;;;;11.87;7.67;;;;;;;;;;5018293;28;20191;-70
2023/11/22 11:17:31;;;;;;;11.60;6.87;;;;;;;;;;5009049;28;20207;-70
2023/11/22 11:19:58;;;;;;;10.40;7.43;;;;;;;;;;5013400;28;20340;-70
2023/11/22 11:22:24;;;;;;;11.13;7.30;;;;;;;;;;5052204;28;20347;-70
2023/11/22 11:25:02;;;;;;;10.20;7.13;;;;;;;;;;5018492;28;20284;-70
2023/11/22 11:27:28;;;;;;;13.00;7.63;;;;;;;;;;5030309;28;20449;-70
2023/11/22 11:29:53;;;;;;;10.33;7.07;;;;;;;;;;5047050;28;20197;-70
2023/11/22 11:32:37;;;;;;;11.43;7.03;;;;;;;;;;5035375;28;20198;-70
2023/11/22 11:35:06;;;;;;;11.13;7.00;;;;;;;;;;5041439;28;20203;-70
2023/11/22 11:37:32;;;;;;;10.73;7.30;;;;;;;;;;5017257;28;20524;-70
2023/11/22 11:39:58;;;;;;;12.13;7.93;;;;;;;;;;5023838;28;20243;-70
2023/11/22 11:42:24;;;;;;;12.03;7.57;;;;;;;;;;5033191;28;20570;-70
2023/11/22 11:45:01;;;;;;;11.07;6.73;;;;;;;;;;5029370;28;20285;-70
2023/11/22 11:47:27;;;;;;;10.53;6.87;;;;;;;;;;5016362;28;20884;-69
2023/11/22 11:49:52;;;;;;;10.87;6.47;;;;;;;;;;5032135;28;20194;-70
2023/11/22 11:52:17;;;;;;;8.40;6.17;;;;;;;;;;5018037;28;20194;-70
2023/11/22 11:54:44;;;;;;;12.90;7.23;;;;;;;;;;5043078;28;20197;-70
2023/11/22 11:57:10;;;;;;;11.23;6.97;;;;;;;;;;5026619;28;20578;-70
2023/11/22 11:59:36;;;;;;;9.93;6.33;;;;;;;;;;5027096;28;20197;-69
2023/11/22 12:02:01;;;;;;;9.53;6.50;;;;;;;;;;5037679;28;20220;-69
2023/11/22 12:04:27;;;;;;;11.57;6.73;;;;;;;;;;5025408;28;20308;-70
2023/11/22 12:06:52;;;;;;;9.93;6.27;;;;;;;;;;5028831;28;20368;-69
2023/11/22 12:09:29;;;;;;;9.10;6.53;;;;;;;;;;5022990;28;20221;-70
2023/11/22 12:11:55;;;;;;;8.80;6.50;;;;;;;;;;5035543;28;20225;-70
2023/11/22 12:14:23;;;;;;;10.60;5.93;;;;;;;;;;5010043;28;20190;-70
2023/11/22 12:16:51;;;;;;;9.90;6.53;;;;;;;;;;5021335;28;20304;-70
2023/11/22 12:19:24;;;;;;;9.63;5.97;;;;;;;;;;5032914;28;20279;-69
2023/11/22 12:21:50;;;;;;;11.33;6.10;;;;;;;;;;5037243;28;20243;-69
2023/11/22 12:24:15;;;;;;;10.00;5.50;;;;;;;;;;5031838;28;20221;-70
2023/11/22 12:26:45;;;;;;;9.10;5.60;;;;;;;;;;5038930;28;20315;-70
2023/11/22 12:29:13;;;;;;;8.13;5.27;;;;;;;;;;5017447;28;20214;-69
2023/11/22 12:31:50;;;;;;;8.90;5.67;;;;;;;;;;5029721;28;20532;-69
2023/11/22 12:34:17;;;;;;;9.07;6.00;;;;;;;;;;5019116;28;20494;-70
2023/11/22 12:36:43;;;;;;;9.53;6.03;;;;;;;;;;5027262;28;20707;-69
2023/11/22 12:39:12;;;;;;;7.63;5.80;;;;;;;;;;5028516;28;20221;-70
2023/11/22 12:41:45;;;;;;;9.80;5.50;;;;;;;;;;5027437;28;20190;-69
2023/11/22 12:44:12;;;;;;;10.00;5.80;;;;;;;;;;5022172;28;20265;-69
2023/11/22 12:46:57;;;;;;;8.60;5.80;;;;;;;;;;5024011;28;20185;-69
2023/11/22 12:49:26;;;;;;;8.67;5.40;;;;;;;;;;5032295;28;20652;-70
2023/11/22 12:51:57;;;;;;;7.32;5.63;;;;;;;;;;5032245;28;20205;-69
2023/11/22 12:54:22;;;;;;;8.13;5.53;;;;;;;;;;5047475;28;20182;-69
2023/11/22 12:56:57;;;;;;;8.63;5.37;;;;;;;;;;5029015;28;20210;-69
2023/11/22 12:59:23;;;;;;;8.20;5.30;;;;;;;;;;5031699;28;20196;-69
2023/11/22 13:01:48;;;;;;;8.07;5.00;;;;;;;;;;5037039;28;20208;-69
2023/11/22 13:04:15;;;;;;;6.37;5.03;;;;;;;;;;5030673;28;20661;-69
2023/11/22 13:06:41;;;;;;;6.85;4.75;;;;;;;;;;5026488;28;20198;-68
2023/11/22 13:09:07;;;;;;;6.97;4.77;;;;;;;;;;5025222;28;20201;-68
2023/11/22 13:11:33;;;;;;;8.70;5.50;;;;;;;;;;5024796;28;20253;-68
2023/11/22 13:13:58;;;;;;;8.10;5.00;;;;;;;;;;5023617;28;20189;-68
2023/11/22 13:16:23;;;;;;;7.97;5.50;;;;;;;;;;5022917;28;20240;-68
2023/11/22 13:18:49;;;;;;;8.63;4.97;;;;;;;;;;5023330;28;20213;-69
2023/11/22 13:21:15;;;;;;;7.07;4.80;;;;;;;;;;5026640;28;20185;-68
2023/11/22 13:23:40;;;;;;;9.53;5.60;;;;;;;;;;5026796;28;20709;-68
2023/11/22 13:26:09;;;;;;;8.07;5.07;;;;;;;;;;5024139;28;20642;-69
2023/11/22 13:28:34;;;;;;;7.50;5.17;;;;;;;;;;5020054;28;20207;-69
2023/11/22 13:31:00;;;;;;;6.80;4.97;;;;;;;;;;5026560;28;20680;-69
2023/11/22 13:33:25;;;;;;;8.63;5.83;;;;;;;;;;5022524;28;20193;-69
2023/11/22 13:35:51;;;;;;;10.27;5.67;;;;;;;;;;5022180;28;20276;-69
2023/11/22 13:38:18;;;;;;;8.57;5.47;;;;;;;;;;5032670;28;20185;-69
2023/11/22 13:40:45;;;;;;;8.67;4.97;;;;;;;;;;5026138;28;20193;-69
2023/11/22 13:43:13;;;;;;;8.23;5.70;;;;;;;;;;5033673;28;20182;-69
2023/11/22 13:45:40;;;;;;;8.37;5.07;;;;;;;;;;5026322;28;20709;-69
2023/11/22 13:48:09;;;;;;;9.23;5.40;;;;;;;;;;5029442;28;20641;-69
2023/11/22 13:50:35;;;;;;;8.67;6.10;;;;;;;;;;5028313;28;20675;-69
2023/11/22 13:53:01;;;;;;;7.73;5.47;;;;;;;;;;5029473;28;20205;-69
2023/11/22 13:55:27;;;;;;;9.27;5.67;;;;;;;;;;5022779;28;20197;-69
2023/11/22 13:57:54;;;;;;;8.60;5.97;;;;;;;;;;5019594;28;20255;-69
2023/11/22 14:00:26;;;;;;;8.43;5.90;;;;;;;;;;5021693;28;20722;-69
2023/11/22 14:02:56;;;;;;;8.90;5.47;;;;;;;;;;5016314;28;20263;-69
2023/11/22 14:05:29;;;;;;;7.60;5.10;;;;;;;;;;5027997;28;20653;-68
2023/11/22 14:07:54;;;;;;;9.37;5.03;;;;;;;;;;5024909;28;20201;-69
2023/11/22 14:10:22;;;;;;;7.13;4.70;;;;;;;;;;5028585;28;20221;-69
2023/11/22 14:12:48;;;;;;;8.07;5.23;;;;;;;;;;5036834;28;20201;-69
2023/11/22 14:15:14;;;;;;;7.27;5.50;;;;;;;;;;5023013;28;20225;-69
2023/11/22 14:17:40;;;;;;;8.60;5.53;;;;;;;;;;5040019;28;20249;-69
2023/11/22 14:20:13;;;;;;;7.43;5.33;;;;;;;;;;5032404;28;20225;-68
2023/11/22 14:22:40;;;;;;;7.37;5.00;;;;;;;;;;5030449;28;20194;-69